sensor_id;sensor_type;location;lat;lon;timestamp;temperature;humidity
44982;DHT22;30716;41.740;-70.400;2022-07-11T00:02:12;23.30;53.20
44982;DHT22;30716;41.740;-70.400;2022-07-11T00:04:39;23.30;53.30
44982;DHT22;30716;41.740;-70.400;2022-07-11T00:07:06;23.30;53.20
44982;DHT22;30716;41.740;-70.400;2022-07-11T00:09:32;23.30;53.30
44982;DHT22;30716;41.740;-70.400;2022-07-11T00:11:59;23.30;53.30
44982;DHT22;30716;41.740;-70.400;2022-07-11T00:14:25;23.40;53.50
44982;DHT22;30716;41.740;-70.400;2022-07-11T00:16:53;23.40;53.40
44982;DHT22;30716;41.740;-70.400;2022-07-11T00:19:22;23.40;53.40
44982;DHT22;30716;41.740;-70.400;2022-07-11T00:21:50;23.40;53.40
44982;DHT22;30716;41.740;-70.400;2022-07-11T00:24:17;23.40;53.40
44982;DHT22;30716;41.740;-70.400;2022-07-11T00:26:46;23.40;53.50
44982;DHT22;30716;41.740;-70.400;2022-07-11T00:29:13;23.40;53.40
44982;DHT22;30716;41.740;-70.400;2022-07-11T00:31:39;23.40;53.40
44982;DHT22;30716;41.740;-70.400;2022-07-11T00:34:05;23.40;53.40
44982;DHT22;30716;41.740;-70.400;2022-07-11T00:36:31;23.40;54.20
44982;DHT22;30716;41.740;-70.400;2022-07-11T00:38:58;23.40;53.40
44982;DHT22;30716;41.740;-70.400;2022-07-11T00:41:24;23.40;53.50
44982;DHT22;30716;41.740;-70.400;2022-07-11T00:43:53;23.40;53.40
44982;DHT22;30716;41.740;-70.400;2022-07-11T00:46:20;23.40;53.40
44982;DHT22;30716;41.740;-70.400;2022-07-11T00:48:46;23.50;54.30
44982;DHT22;30716;41.740;-70.400;2022-07-11T00:51:12;23.50;53.60
44982;DHT22;30716;41.740;-70.400;2022-07-11T00:53:39;23.50;53.50
44982;DHT22;30716;41.740;-70.400;2022-07-11T00:56:07;23.50;53.50
44982;DHT22;30716;41.740;-70.400;2022-07-11T00:58:34;23.40;53.70
44982;DHT22;30716;41.740;-70.400;2022-07-11T01:01:02;23.40;53.60
44982;DHT22;30716;41.740;-70.400;2022-07-11T01:03:28;23.40;53.70
44982;DHT22;30716;41.740;-70.400;2022-07-11T01:05:54;23.40;53.60
44982;DHT22;30716;41.740;-70.400;2022-07-11T01:08:21;23.40;53.60
44982;DHT22;30716;41.740;-70.400;2022-07-11T01:10:47;23.40;53.50
44982;DHT22;30716;41.740;-70.400;2022-07-11T01:13:13;23.40;53.50
44982;DHT22;30716;41.740;-70.400;2022-07-11T01:15:39;23.40;53.50
44982;DHT22;30716;41.740;-70.400;2022-07-11T01:18:05;23.40;53.60
44982;DHT22;30716;41.740;-70.400;2022-07-11T01:20:31;23.40;53.60
44982;DHT22;30716;41.740;-70.400;2022-07-11T01:23:03;23.40;53.70
44982;DHT22;30716;41.740;-70.400;2022-07-11T01:25:29;23.40;53.60
44982;DHT22;30716;41.740;-70.400;2022-07-11T01:30:24;23.40;53.70
44982;DHT22;30716;41.740;-70.400;2022-07-11T01:32:54;23.50;53.80
44982;DHT22;30716;41.740;-70.400;2022-07-11T01:35:22;23.40;53.70
44982;DHT22;30716;41.740;-70.400;2022-07-11T01:37:48;23.40;53.70
44982;DHT22;30716;41.740;-70.400;2022-07-11T01:40:15;23.50;53.80
44982;DHT22;30716;41.740;-70.400;2022-07-11T01:42:41;23.50;53.90
44982;DHT22;30716;41.740;-70.400;2022-07-11T01:45:09;23.50;53.80
44982;DHT22;30716;41.740;-70.400;2022-07-11T01:47:35;23.50;54.00
44982;DHT22;30716;41.740;-70.400;2022-07-11T01:50:02;23.50;53.90
44982;DHT22;30716;41.740;-70.400;2022-07-11T01:52:28;23.50;53.90
44982;DHT22;30716;41.740;-70.400;2022-07-11T01:54:54;23.50;53.90
44982;DHT22;30716;41.740;-70.400;2022-07-11T01:57:20;23.50;54.10
44982;DHT22;30716;41.740;-70.400;2022-07-11T01:59:47;23.50;54.70
44982;DHT22;30716;41.740;-70.400;2022-07-11T02:02:13;23.50;54.00
44982;DHT22;30716;41.740;-70.400;2022-07-11T02:04:39;23.50;54.00
44982;DHT22;30716;41.740;-70.400;2022-07-11T02:07:06;23.60;54.20
44982;DHT22;30716;41.740;-70.400;2022-07-11T02:09:32;23.60;54.00
44982;DHT22;30716;41.740;-70.400;2022-07-11T02:11:59;23.60;54.00
44982;DHT22;30716;41.740;-70.400;2022-07-11T02:14:25;23.60;54.00
44982;DHT22;30716;41.740;-70.400;2022-07-11T02:16:51;23.60;53.90
44982;DHT22;30716;41.740;-70.400;2022-07-11T02:19:17;23.60;53.90
44982;DHT22;30716;41.740;-70.400;2022-07-11T02:21:44;23.60;54.00
44982;DHT22;30716;41.740;-70.400;2022-07-11T02:24:10;23.60;53.90
44982;DHT22;30716;41.740;-70.400;2022-07-11T02:26:36;23.60;53.80
44982;DHT22;30716;41.740;-70.400;2022-07-11T02:29:02;23.60;53.80
44982;DHT22;30716;41.740;-70.400;2022-07-11T02:31:28;23.60;53.80
44982;DHT22;30716;41.740;-70.400;2022-07-11T02:33:55;23.60;53.80
44982;DHT22;30716;41.740;-70.400;2022-07-11T02:36:21;23.60;53.80
44982;DHT22;30716;41.740;-70.400;2022-07-11T02:38:47;23.60;53.70
44982;DHT22;30716;41.740;-70.400;2022-07-11T02:41:13;23.60;53.80
44982;DHT22;30716;41.740;-70.400;2022-07-11T02:43:39;23.60;53.90
44982;DHT22;30716;41.740;-70.400;2022-07-11T02:46:05;23.60;53.90
44982;DHT22;30716;41.740;-70.400;2022-07-11T02:48:31;23.60;53.90
44982;DHT22;30716;41.740;-70.400;2022-07-11T02:50:58;23.60;54.00
44982;DHT22;30716;41.740;-70.400;2022-07-11T02:53:24;23.60;54.00
44982;DHT22;30716;41.740;-70.400;2022-07-11T02:55:50;23.60;53.90
44982;DHT22;30716;41.740;-70.400;2022-07-11T02:58:16;23.60;53.90
44982;DHT22;30716;41.740;-70.400;2022-07-11T03:00:42;23.60;54.00
44982;DHT22;30716;41.740;-70.400;2022-07-11T03:03:08;23.60;54.30
44982;DHT22;30716;41.740;-70.400;2022-07-11T03:05:35;23.60;54.20
44982;DHT22;30716;41.740;-70.400;2022-07-11T03:08:01;23.60;54.10
44982;DHT22;30716;41.740;-70.400;2022-07-11T03:10:27;23.60;54.20
44982;DHT22;30716;41.740;-70.400;2022-07-11T03:12:53;23.70;54.20
44982;DHT22;30716;41.740;-70.400;2022-07-11T03:15:19;23.70;54.20
44982;DHT22;30716;41.740;-70.400;2022-07-11T03:17:46;23.70;54.40
44982;DHT22;30716;41.740;-70.400;2022-07-11T03:20:13;23.70;54.20
44982;DHT22;30716;41.740;-70.400;2022-07-11T03:22:40;23.60;54.20
44982;DHT22;30716;41.740;-70.400;2022-07-11T03:25:06;23.70;54.30
44982;DHT22;30716;41.740;-70.400;2022-07-11T03:27:33;23.70;54.40
44982;DHT22;30716;41.740;-70.400;2022-07-11T03:30:00;23.70;54.30
44982;DHT22;30716;41.740;-70.400;2022-07-11T03:32:26;23.70;54.30
44982;DHT22;30716;41.740;-70.400;2022-07-11T03:34:52;23.70;54.40
44982;DHT22;30716;41.740;-70.400;2022-07-11T03:37:36;23.70;54.40
44982;DHT22;30716;41.740;-70.400;2022-07-11T03:40:03;23.70;54.40
44982;DHT22;30716;41.740;-70.400;2022-07-11T03:42:29;23.70;54.40
44982;DHT22;30716;41.740;-70.400;2022-07-11T03:44:55;23.70;54.30
44982;DHT22;30716;41.740;-70.400;2022-07-11T03:47:21;23.70;54.40
44982;DHT22;30716;41.740;-70.400;2022-07-11T03:49:47;23.70;54.40
44982;DHT22;30716;41.740;-70.400;2022-07-11T03:52:13;23.70;54.50
44982;DHT22;30716;41.740;-70.400;2022-07-11T03:54:40;23.70;54.50
44982;DHT22;30716;41.740;-70.400;2022-07-11T03:57:06;23.70;54.50
44982;DHT22;30716;41.740;-70.400;2022-07-11T03:59:32;23.70;54.40
44982;DHT22;30716;41.740;-70.400;2022-07-11T04:01:58;23.70;54.50
44982;DHT22;30716;41.740;-70.400;2022-07-11T04:04:24;23.70;54.50
44982;DHT22;30716;41.740;-70.400;2022-07-11T04:06:50;23.70;54.50
44982;DHT22;30716;41.740;-70.400;2022-07-11T04:09:16;23.70;54.50
44982;DHT22;30716;41.740;-70.400;2022-07-11T04:11:42;23.70;54.60
44982;DHT22;30716;41.740;-70.400;2022-07-11T04:14:09;23.70;54.60
44982;DHT22;30716;41.740;-70.400;2022-07-11T04:16:35;23.70;54.60
44982;DHT22;30716;41.740;-70.400;2022-07-11T04:19:01;23.70;54.70
44982;DHT22;30716;41.740;-70.400;2022-07-11T04:21:27;23.70;54.70
44982;DHT22;30716;41.740;-70.400;2022-07-11T04:23:53;23.70;54.70
44982;DHT22;30716;41.740;-70.400;2022-07-11T04:26:19;23.70;54.70
44982;DHT22;30716;41.740;-70.400;2022-07-11T04:28:45;23.70;54.70
44982;DHT22;30716;41.740;-70.400;2022-07-11T04:31:11;23.70;54.70
44982;DHT22;30716;41.740;-70.400;2022-07-11T04:33:37;23.70;55.40
44982;DHT22;30716;41.740;-70.400;2022-07-11T04:36:03;23.70;54.60
44982;DHT22;30716;41.740;-70.400;2022-07-11T04:38:29;23.70;54.70
44982;DHT22;30716;41.740;-70.400;2022-07-11T04:40:55;23.70;54.70
44982;DHT22;30716;41.740;-70.400;2022-07-11T04:43:22;23.70;54.80
44982;DHT22;30716;41.740;-70.400;2022-07-11T04:45:48;23.70;54.70
44982;DHT22;30716;41.740;-70.400;2022-07-11T04:48:14;23.70;54.70
44982;DHT22;30716;41.740;-70.400;2022-07-11T04:50:43;23.70;54.70
44982;DHT22;30716;41.740;-70.400;2022-07-11T04:53:10;23.70;54.70
44982;DHT22;30716;41.740;-70.400;2022-07-11T04:55:38;23.70;54.70
44982;DHT22;30716;41.740;-70.400;2022-07-11T04:58:08;23.70;54.70
44982;DHT22;30716;41.740;-70.400;2022-07-11T05:00:35;23.70;54.70
44982;DHT22;30716;41.740;-70.400;2022-07-11T05:03:01;23.70;54.70
44982;DHT22;30716;41.740;-70.400;2022-07-11T05:05:28;23.70;54.80
44982;DHT22;30716;41.740;-70.400;2022-07-11T05:07:54;23.70;54.80
44982;DHT22;30716;41.740;-70.400;2022-07-11T05:10:20;23.70;54.90
44982;DHT22;30716;41.740;-70.400;2022-07-11T05:12:46;23.70;54.90
44982;DHT22;30716;41.740;-70.400;2022-07-11T05:15:12;23.70;54.80
44982;DHT22;30716;41.740;-70.400;2022-07-11T05:17:38;23.70;54.80
44982;DHT22;30716;41.740;-70.400;2022-07-11T05:20:05;23.70;54.90
44982;DHT22;30716;41.740;-70.400;2022-07-11T05:22:31;23.70;54.80
44982;DHT22;30716;41.740;-70.400;2022-07-11T05:24:57;23.70;54.80
44982;DHT22;30716;41.740;-70.400;2022-07-11T05:27:23;23.70;54.90
44982;DHT22;30716;41.740;-70.400;2022-07-11T05:29:49;23.70;55.70
44982;DHT22;30716;41.740;-70.400;2022-07-11T05:32:16;23.70;54.90
44982;DHT22;30716;41.740;-70.400;2022-07-11T05:34:42;23.70;54.90
44982;DHT22;30716;41.740;-70.400;2022-07-11T05:37:08;23.70;54.90
44982;DHT22;30716;41.740;-70.400;2022-07-11T05:39:34;23.70;54.90
44982;DHT22;30716;41.740;-70.400;2022-07-11T05:42:00;23.70;54.90
44982;DHT22;30716;41.740;-70.400;2022-07-11T05:44:26;23.70;54.90
44982;DHT22;30716;41.740;-70.400;2022-07-11T05:46:52;23.70;54.90
44982;DHT22;30716;41.740;-70.400;2022-07-11T05:49:18;23.70;55.00
44982;DHT22;30716;41.740;-70.400;2022-07-11T05:51:45;23.70;54.90
44982;DHT22;30716;41.740;-70.400;2022-07-11T05:54:11;23.70;55.00
44982;DHT22;30716;41.740;-70.400;2022-07-11T05:56:37;23.70;55.00
44982;DHT22;30716;41.740;-70.400;2022-07-11T05:59:03;23.70;55.00
44982;DHT22;30716;41.740;-70.400;2022-07-11T06:01:30;23.70;54.90
44982;DHT22;30716;41.740;-70.400;2022-07-11T06:03:57;23.70;55.00
44982;DHT22;30716;41.740;-70.400;2022-07-11T06:06:25;23.70;55.00
44982;DHT22;30716;41.740;-70.400;2022-07-11T06:08:51;23.70;55.00
44982;DHT22;30716;41.740;-70.400;2022-07-11T06:11:18;23.70;55.10
44982;DHT22;30716;41.740;-70.400;2022-07-11T06:13:45;23.70;55.00
44982;DHT22;30716;41.740;-70.400;2022-07-11T06:16:11;23.70;55.10
44982;DHT22;30716;41.740;-70.400;2022-07-11T06:18:38;23.70;55.10
44982;DHT22;30716;41.740;-70.400;2022-07-11T06:21:05;23.70;55.10
44982;DHT22;30716;41.740;-70.400;2022-07-11T06:23:32;23.70;55.10
44982;DHT22;30716;41.740;-70.400;2022-07-11T06:26:00;23.70;55.10
44982;DHT22;30716;41.740;-70.400;2022-07-11T06:28:26;23.70;55.00
44982;DHT22;30716;41.740;-70.400;2022-07-11T06:30:52;23.70;55.10
44982;DHT22;30716;41.740;-70.400;2022-07-11T06:33:19;23.70;55.10
44982;DHT22;30716;41.740;-70.400;2022-07-11T06:35:46;23.70;55.10
44982;DHT22;30716;41.740;-70.400;2022-07-11T06:38:14;23.70;55.10
44982;DHT22;30716;41.740;-70.400;2022-07-11T06:40:40;23.70;55.10
44982;DHT22;30716;41.740;-70.400;2022-07-11T06:43:11;23.70;55.10
44982;DHT22;30716;41.740;-70.400;2022-07-11T06:45:38;23.70;55.20
44982;DHT22;30716;41.740;-70.400;2022-07-11T06:48:05;23.70;55.10
44982;DHT22;30716;41.740;-70.400;2022-07-11T06:50:31;23.60;55.00
44982;DHT22;30716;41.740;-70.400;2022-07-11T06:52:58;23.70;55.20
44982;DHT22;30716;41.740;-70.400;2022-07-11T06:55:24;23.70;55.10
44982;DHT22;30716;41.740;-70.400;2022-07-11T06:57:50;23.70;55.20
44982;DHT22;30716;41.740;-70.400;2022-07-11T07:00:17;23.70;55.20
44982;DHT22;30716;41.740;-70.400;2022-07-11T07:02:46;23.70;55.20
44982;DHT22;30716;41.740;-70.400;2022-07-11T07:05:12;23.70;55.20
44982;DHT22;30716;41.740;-70.400;2022-07-11T07:07:38;23.70;55.20
44982;DHT22;30716;41.740;-70.400;2022-07-11T07:10:05;23.70;55.20
44982;DHT22;30716;41.740;-70.400;2022-07-11T07:12:31;23.70;55.20
44982;DHT22;30716;41.740;-70.400;2022-07-11T07:15:00;23.60;55.20
44982;DHT22;30716;41.740;-70.400;2022-07-11T07:17:26;23.70;55.30
44982;DHT22;30716;41.740;-70.400;2022-07-11T07:19:52;23.60;55.30
44982;DHT22;30716;41.740;-70.400;2022-07-11T07:22:18;23.70;55.30
44982;DHT22;30716;41.740;-70.400;2022-07-11T07:24:44;23.70;55.30
44982;DHT22;30716;41.740;-70.400;2022-07-11T07:27:11;23.70;55.30
44982;DHT22;30716;41.740;-70.400;2022-07-11T07:29:37;23.70;55.30
44982;DHT22;30716;41.740;-70.400;2022-07-11T07:32:05;23.70;55.30
44982;DHT22;30716;41.740;-70.400;2022-07-11T07:34:31;23.70;55.30
44982;DHT22;30716;41.740;-70.400;2022-07-11T07:36:58;23.60;55.20
44982;DHT22;30716;41.740;-70.400;2022-07-11T07:39:24;23.60;55.20
44982;DHT22;30716;41.740;-70.400;2022-07-11T07:41:51;23.70;55.40
44982;DHT22;30716;41.740;-70.400;2022-07-11T07:44:17;23.70;55.20
44982;DHT22;30716;41.740;-70.400;2022-07-11T07:46:44;23.70;55.30
44982;DHT22;30716;41.740;-70.400;2022-07-11T07:49:10;23.60;55.30
44982;DHT22;30716;41.740;-70.400;2022-07-11T07:51:36;23.60;55.20
44982;DHT22;30716;41.740;-70.400;2022-07-11T07:54:03;23.60;55.30
44982;DHT22;30716;41.740;-70.400;2022-07-11T07:56:29;23.70;55.30
44982;DHT22;30716;41.740;-70.400;2022-07-11T07:58:55;23.70;55.40
44982;DHT22;30716;41.740;-70.400;2022-07-11T08:01:22;23.60;55.30
44982;DHT22;30716;41.740;-70.400;2022-07-11T08:04:10;23.60;55.30
44982;DHT22;30716;41.740;-70.400;2022-07-11T08:06:36;23.70;55.40
44982;DHT22;30716;41.740;-70.400;2022-07-11T08:09:04;23.60;55.30
44982;DHT22;30716;41.740;-70.400;2022-07-11T08:11:31;23.60;55.40
44982;DHT22;30716;41.740;-70.400;2022-07-11T08:13:58;23.70;55.50
44982;DHT22;30716;41.740;-70.400;2022-07-11T08:16:24;23.60;55.30
44982;DHT22;30716;41.740;-70.400;2022-07-11T08:18:50;23.60;55.30
44982;DHT22;30716;41.740;-70.400;2022-07-11T08:21:18;23.60;55.50
44982;DHT22;30716;41.740;-70.400;2022-07-11T08:23:44;23.60;55.50
44982;DHT22;30716;41.740;-70.400;2022-07-11T08:26:11;23.70;55.50
44982;DHT22;30716;41.740;-70.400;2022-07-11T08:28:37;23.70;55.50
44982;DHT22;30716;41.740;-70.400;2022-07-11T08:31:03;23.70;55.50
44982;DHT22;30716;41.740;-70.400;2022-07-11T08:33:29;23.60;55.40
44982;DHT22;30716;41.740;-70.400;2022-07-11T08:35:55;23.60;55.40
44982;DHT22;30716;41.740;-70.400;2022-07-11T08:38:21;23.70;55.40
44982;DHT22;30716;41.740;-70.400;2022-07-11T08:40:49;23.60;55.40
44982;DHT22;30716;41.740;-70.400;2022-07-11T08:43:21;23.60;55.30
44982;DHT22;30716;41.740;-70.400;2022-07-11T08:45:49;23.70;55.40
44982;DHT22;30716;41.740;-70.400;2022-07-11T08:48:16;23.60;55.30
44982;DHT22;30716;41.740;-70.400;2022-07-11T08:50:43;23.60;55.40
44982;DHT22;30716;41.740;-70.400;2022-07-11T08:53:09;23.60;55.50
44982;DHT22;30716;41.740;-70.400;2022-07-11T08:55:36;23.60;55.40
44982;DHT22;30716;41.740;-70.400;2022-07-11T08:58:02;23.60;55.50
44982;DHT22;30716;41.740;-70.400;2022-07-11T09:00:29;23.60;55.50
44982;DHT22;30716;41.740;-70.400;2022-07-11T09:02:55;23.60;55.50
44982;DHT22;30716;41.740;-70.400;2022-07-11T09:05:23;23.60;55.50
44982;DHT22;30716;41.740;-70.400;2022-07-11T09:07:49;23.60;55.50
44982;DHT22;30716;41.740;-70.400;2022-07-11T09:10:18;23.60;55.60
44982;DHT22;30716;41.740;-70.400;2022-07-11T09:13:02;23.60;55.60
44982;DHT22;30716;41.740;-70.400;2022-07-11T09:15:33;23.60;55.60
44982;DHT22;30716;41.740;-70.400;2022-07-11T09:18:00;23.60;55.50
44982;DHT22;30716;41.740;-70.400;2022-07-11T09:20:27;23.60;55.50
44982;DHT22;30716;41.740;-70.400;2022-07-11T09:23:22;23.60;55.60
44982;DHT22;30716;41.740;-70.400;2022-07-11T09:26:06;23.60;55.50
44982;DHT22;30716;41.740;-70.400;2022-07-11T09:28:33;23.60;55.60
44982;DHT22;30716;41.740;-70.400;2022-07-11T09:30:59;23.60;55.60
44982;DHT22;30716;41.740;-70.400;2022-07-11T09:34:01;23.60;55.60
44982;DHT22;30716;41.740;-70.400;2022-07-11T09:36:54;23.60;55.50
44982;DHT22;30716;41.740;-70.400;2022-07-11T09:39:26;23.60;55.50
44982;DHT22;30716;41.740;-70.400;2022-07-11T09:41:53;23.60;55.60
44982;DHT22;30716;41.740;-70.400;2022-07-11T09:44:26;23.60;55.60
44982;DHT22;30716;41.740;-70.400;2022-07-11T09:46:55;23.60;55.60
44982;DHT22;30716;41.740;-70.400;2022-07-11T09:52:16;23.60;55.60
44982;DHT22;30716;41.740;-70.400;2022-07-11T09:54:55;23.60;55.60
44982;DHT22;30716;41.740;-70.400;2022-07-11T09:59:59;23.60;55.60
44982;DHT22;30716;41.740;-70.400;2022-07-11T10:02:26;23.60;55.70
44982;DHT22;30716;41.740;-70.400;2022-07-11T10:04:52;23.60;55.70
44982;DHT22;30716;41.740;-70.400;2022-07-11T10:07:18;23.60;55.60
44982;DHT22;30716;41.740;-70.400;2022-07-11T10:09:44;23.60;55.60
44982;DHT22;30716;41.740;-70.400;2022-07-11T10:12:10;23.60;55.60
44982;DHT22;30716;41.740;-70.400;2022-07-11T10:14:38;23.60;55.50
44982;DHT22;30716;41.740;-70.400;2022-07-11T10:17:36;23.60;55.60
44982;DHT22;30716;41.740;-70.400;2022-07-11T10:20:11;23.60;55.50
44982;DHT22;30716;41.740;-70.400;2022-07-11T10:28:26;23.70;55.50
44982;DHT22;30716;41.740;-70.400;2022-07-11T10:30:54;23.60;55.50
44982;DHT22;30716;41.740;-70.400;2022-07-11T10:33:26;23.70;55.50
44982;DHT22;30716;41.740;-70.400;2022-07-11T10:35:53;23.70;55.50
44982;DHT22;30716;41.740;-70.400;2022-07-11T10:38:20;23.70;55.50
44982;DHT22;30716;41.740;-70.400;2022-07-11T10:40:55;23.70;55.50
44982;DHT22;30716;41.740;-70.400;2022-07-11T10:46:01;23.70;55.40
44982;DHT22;30716;41.740;-70.400;2022-07-11T10:48:29;23.80;55.50
44982;DHT22;30716;41.740;-70.400;2022-07-11T10:51:16;23.70;55.30
44982;DHT22;30716;41.740;-70.400;2022-07-11T10:53:48;23.70;55.40
44982;DHT22;30716;41.740;-70.400;2022-07-11T10:59:15;23.70;55.40
44982;DHT22;30716;41.740;-70.400;2022-07-11T11:02:01;23.80;55.40
44982;DHT22;30716;41.740;-70.400;2022-07-11T11:04:53;23.70;55.30
44982;DHT22;30716;41.740;-70.400;2022-07-11T11:07:40;23.70;55.40
44982;DHT22;30716;41.740;-70.400;2022-07-11T11:15:44;23.70;55.00
44982;DHT22;30716;41.740;-70.400;2022-07-11T11:23:34;23.70;55.10
44982;DHT22;30716;41.740;-70.400;2022-07-11T11:26:11;23.60;54.90
44982;DHT22;30716;41.740;-70.400;2022-07-11T11:28:44;23.60;54.90
44982;DHT22;30716;41.740;-70.400;2022-07-11T11:31:20;23.60;54.90
44982;DHT22;30716;41.740;-70.400;2022-07-11T11:33:47;23.70;55.00
44982;DHT22;30716;41.740;-70.400;2022-07-11T11:36:16;23.60;54.80
44982;DHT22;30716;41.740;-70.400;2022-07-11T11:38:43;23.70;54.90
44982;DHT22;30716;41.740;-70.400;2022-07-11T11:41:10;23.60;54.80
44982;DHT22;30716;41.740;-70.400;2022-07-11T11:43:37;23.60;54.90
44982;DHT22;30716;41.740;-70.400;2022-07-11T11:46:04;23.70;55.00
44982;DHT22;30716;41.740;-70.400;2022-07-11T11:48:32;23.60;54.90
44982;DHT22;30716;41.740;-70.400;2022-07-11T11:51:06;23.60;54.90
44982;DHT22;30716;41.740;-70.400;2022-07-11T11:56:27;23.60;54.90
44982;DHT22;30716;41.740;-70.400;2022-07-11T11:59:01;23.60;54.90
44982;DHT22;30716;41.740;-70.400;2022-07-11T12:01:31;23.60;55.00
44982;DHT22;30716;41.740;-70.400;2022-07-11T12:04:00;23.70;55.10
44982;DHT22;30716;41.740;-70.400;2022-07-11T12:06:30;23.70;55.10
44982;DHT22;30716;41.740;-70.400;2022-07-11T12:09:21;23.70;55.10
44982;DHT22;30716;41.740;-70.400;2022-07-11T12:12:10;23.70;55.10
44982;DHT22;30716;41.740;-70.400;2022-07-11T12:14:55;23.70;55.10
44982;DHT22;30716;41.740;-70.400;2022-07-11T12:17:25;23.70;55.10
44982;DHT22;30716;41.740;-70.400;2022-07-11T12:19:52;23.70;55.10
44982;DHT22;30716;41.740;-70.400;2022-07-11T12:22:18;23.70;55.20
44982;DHT22;30716;41.740;-70.400;2022-07-11T12:24:52;23.70;55.20
44982;DHT22;30716;41.740;-70.400;2022-07-11T12:27:25;23.70;55.20
44982;DHT22;30716;41.740;-70.400;2022-07-11T12:29:52;23.70;55.10
44982;DHT22;30716;41.740;-70.400;2022-07-11T12:32:19;23.70;55.20
44982;DHT22;30716;41.740;-70.400;2022-07-11T12:34:47;23.70;55.10
44982;DHT22;30716;41.740;-70.400;2022-07-11T12:37:19;23.70;55.20
44982;DHT22;30716;41.740;-70.400;2022-07-11T12:39:51;23.70;55.20
44982;DHT22;30716;41.740;-70.400;2022-07-11T12:45:03;23.70;55.20
44982;DHT22;30716;41.740;-70.400;2022-07-11T12:47:38;23.70;55.20
44982;DHT22;30716;41.740;-70.400;2022-07-11T12:52:46;23.70;55.20
44982;DHT22;30716;41.740;-70.400;2022-07-11T12:55:40;23.70;55.20
44982;DHT22;30716;41.740;-70.400;2022-07-11T12:58:13;23.70;55.30
44982;DHT22;30716;41.740;-70.400;2022-07-11T13:00:59;23.70;55.30
44982;DHT22;30716;41.740;-70.400;2022-07-11T13:03:32;23.70;55.30
44982;DHT22;30716;41.740;-70.400;2022-07-11T13:05:59;23.70;55.20
44982;DHT22;30716;41.740;-70.400;2022-07-11T13:08:33;23.70;55.20
44982;DHT22;30716;41.740;-70.400;2022-07-11T13:11:19;23.70;55.20
44982;DHT22;30716;41.740;-70.400;2022-07-11T13:13:47;23.70;55.20
44982;DHT22;30716;41.740;-70.400;2022-07-11T13:16:14;23.70;55.20
44982;DHT22;30716;41.740;-70.400;2022-07-11T13:18:41;23.70;55.20
44982;DHT22;30716;41.740;-70.400;2022-07-11T13:21:07;23.70;55.30
44982;DHT22;30716;41.740;-70.400;2022-07-11T13:23:35;23.70;55.30
44982;DHT22;30716;41.740;-70.400;2022-07-11T13:26:01;23.70;55.20
44982;DHT22;30716;41.740;-70.400;2022-07-11T13:28:28;23.70;55.20
44982;DHT22;30716;41.740;-70.400;2022-07-11T13:30:54;23.70;55.20
44982;DHT22;30716;41.740;-70.400;2022-07-11T13:33:20;23.70;55.30
44982;DHT22;30716;41.740;-70.400;2022-07-11T13:35:47;23.70;55.20
44982;DHT22;30716;41.740;-70.400;2022-07-11T13:38:14;23.70;55.30
44982;DHT22;30716;41.740;-70.400;2022-07-11T13:40:41;23.70;55.30
44982;DHT22;30716;41.740;-70.400;2022-07-11T13:43:09;23.70;55.20
44982;DHT22;30716;41.740;-70.400;2022-07-11T13:45:35;23.70;55.30
44982;DHT22;30716;41.740;-70.400;2022-07-11T13:48:02;23.70;55.30
44982;DHT22;30716;41.740;-70.400;2022-07-11T13:50:28;23.70;55.30
44982;DHT22;30716;41.740;-70.400;2022-07-11T13:52:54;23.70;55.20
44982;DHT22;30716;41.740;-70.400;2022-07-11T13:55:22;23.70;55.20
44982;DHT22;30716;41.740;-70.400;2022-07-11T13:57:58;23.70;55.20
44982;DHT22;30716;41.740;-70.400;2022-07-11T14:00:26;23.70;55.20
44982;DHT22;30716;41.740;-70.400;2022-07-11T14:02:54;23.70;55.20
44982;DHT22;30716;41.740;-70.400;2022-07-11T14:05:20;23.70;55.20
44982;DHT22;30716;41.740;-70.400;2022-07-11T14:07:47;23.70;55.20
44982;DHT22;30716;41.740;-70.400;2022-07-11T14:10:14;23.70;55.30
44982;DHT22;30716;41.740;-70.400;2022-07-11T14:12:40;23.70;55.20
44982;DHT22;30716;41.740;-70.400;2022-07-11T14:15:07;23.70;55.20
44982;DHT22;30716;41.740;-70.400;2022-07-11T14:17:35;23.70;55.30
44982;DHT22;30716;41.740;-70.400;2022-07-11T14:20:01;23.70;55.20
44982;DHT22;30716;41.740;-70.400;2022-07-11T14:22:27;23.70;55.20
44982;DHT22;30716;41.740;-70.400;2022-07-11T14:24:53;23.70;55.30
44982;DHT22;30716;41.740;-70.400;2022-07-11T14:27:19;23.70;55.20
44982;DHT22;30716;41.740;-70.400;2022-07-11T14:29:46;23.70;55.20
44982;DHT22;30716;41.740;-70.400;2022-07-11T14:32:16;23.70;55.30
44982;DHT22;30716;41.740;-70.400;2022-07-11T14:34:43;23.70;55.20
44982;DHT22;30716;41.740;-70.400;2022-07-11T14:37:10;23.70;55.20
44982;DHT22;30716;41.740;-70.400;2022-07-11T14:39:36;23.70;55.30
44982;DHT22;30716;41.740;-70.400;2022-07-11T14:42:02;23.70;55.20
44982;DHT22;30716;41.740;-70.400;2022-07-11T14:44:28;23.80;55.40
44982;DHT22;30716;41.740;-70.400;2022-07-11T14:46:55;23.80;55.40
44982;DHT22;30716;41.740;-70.400;2022-07-11T14:49:21;23.70;55.30
44982;DHT22;30716;41.740;-70.400;2022-07-11T14:51:47;23.80;55.40
44982;DHT22;30716;41.740;-70.400;2022-07-11T14:54:13;23.70;55.20
44982;DHT22;30716;41.740;-70.400;2022-07-11T14:56:40;23.70;55.30
44982;DHT22;30716;41.740;-70.400;2022-07-11T14:59:06;23.70;55.30
44982;DHT22;30716;41.740;-70.400;2022-07-11T15:01:34;23.70;55.30
44982;DHT22;30716;41.740;-70.400;2022-07-11T15:04:00;23.70;55.20
44982;DHT22;30716;41.740;-70.400;2022-07-11T15:06:28;23.70;55.30
44982;DHT22;30716;41.740;-70.400;2022-07-11T15:09:13;23.70;55.30
44982;DHT22;30716;41.740;-70.400;2022-07-11T15:11:57;23.80;55.40
44982;DHT22;30716;41.740;-70.400;2022-07-11T15:14:41;23.70;55.30
44982;DHT22;30716;41.740;-70.400;2022-07-11T15:17:07;23.70;55.40
44982;DHT22;30716;41.740;-70.400;2022-07-11T15:19:33;23.70;55.40
44982;DHT22;30716;41.740;-70.400;2022-07-11T15:21:59;23.70;55.40
44982;DHT22;30716;41.740;-70.400;2022-07-11T15:24:26;23.80;55.40
44982;DHT22;30716;41.740;-70.400;2022-07-11T15:26:52;23.80;55.40
44982;DHT22;30716;41.740;-70.400;2022-07-11T15:29:18;23.70;55.30
44982;DHT22;30716;41.740;-70.400;2022-07-11T15:31:44;23.80;55.40
44982;DHT22;30716;41.740;-70.400;2022-07-11T15:34:12;23.70;55.30
44982;DHT22;30716;41.740;-70.400;2022-07-11T15:36:39;23.80;55.50
44982;DHT22;30716;41.740;-70.400;2022-07-11T15:39:05;23.80;55.40
44982;DHT22;30716;41.740;-70.400;2022-07-11T15:41:31;23.80;55.50
44982;DHT22;30716;41.740;-70.400;2022-07-11T15:43:57;23.80;55.50
44982;DHT22;30716;41.740;-70.400;2022-07-11T15:46:23;23.80;55.50
44982;DHT22;30716;41.740;-70.400;2022-07-11T15:48:49;23.70;55.40